sensor_id;sensor_type;location;lat;lon;timestamp;P1;durP1;ratioP1;P2;durP2;ratioP2
8819;SDS011;4446;50.876;4.736;2022-10-26T00:01:03;4.32;;;2.75;;
8819;SDS011;4446;50.876;4.736;2022-10-26T00:03:32;4.47;;;2.67;;
8819;SDS011;4446;50.876;4.736;2022-10-26T00:06:03;6.28;;;2.85;;
8819;SDS011;4446;50.876;4.736;2022-10-26T00:08:33;3.88;;;2.50;;
8819;SDS011;4446;50.876;4.736;2022-10-26T00:11:01;7.20;;;3.05;;
8819;SDS011;4446;50.876;4.736;2022-10-26T00:13:28;6.10;;;2.75;;
8819;SDS011;4446;50.876;4.736;2022-10-26T00:15:55;4.03;;;2.65;;
8819;SDS011;4446;50.876;4.736;2022-10-26T00:18:24;4.45;;;2.67;;
8819;SDS011;4446;50.876;4.736;2022-10-26T00:20:52;8.48;;;3.55;;
8819;SDS011;4446;50.876;4.736;2022-10-26T00:23:19;5.63;;;3.30;;
8819;SDS011;4446;50.876;4.736;2022-10-26T00:25:53;7.25;;;3.50;;
8819;SDS011;4446;50.876;4.736;2022-10-26T00:28:21;6.43;;;3.45;;
8819;SDS011;4446;50.876;4.736;2022-10-26T00:30:48;4.68;;;3.60;;
8819;SDS011;4446;50.876;4.736;2022-10-26T00:33:18;5.13;;;3.33;;
8819;SDS011;4446;50.876;4.736;2022-10-26T00:35:46;4.85;;;3.70;;
8819;SDS011;4446;50.876;4.736;2022-10-26T00:38:14;8.10;;;4.20;;
8819;SDS011;4446;50.876;4.736;2022-10-26T00:40:44;6.90;;;4.03;;
8819;SDS011;4446;50.876;4.736;2022-10-26T00:43:31;6.53;;;3.45;;
8819;SDS011;4446;50.876;4.736;2022-10-26T00:46:00;7.68;;;3.72;;
8819;SDS011;4446;50.876;4.736;2022-10-26T00:48:31;6.85;;;3.90;;
8819;SDS011;4446;50.876;4.736;2022-10-26T00:51:03;9.93;;;4.28;;
8819;SDS011;4446;50.876;4.736;2022-10-26T00:53:35;4.55;;;3.50;;
8819;SDS011;4446;50.876;4.736;2022-10-26T00:56:02;5.65;;;3.75;;
8819;SDS011;4446;50.876;4.736;2022-10-26T00:58:32;7.18;;;3.95;;
8819;SDS011;4446;50.876;4.736;2022-10-26T01:01:00;6.35;;;3.80;;
8819;SDS011;4446;50.876;4.736;2022-10-26T01:03:27;5.40;;;3.30;;
8819;SDS011;4446;50.876;4.736;2022-10-26T01:05:56;6.05;;;3.40;;
8819;SDS011;4446;50.876;4.736;2022-10-26T01:08:23;4.43;;;3.22;;
8819;SDS011;4446;50.876;4.736;2022-10-26T01:10:53;5.07;;;3.20;;
8819;SDS011;4446;50.876;4.736;2022-10-26T01:13:21;4.60;;;3.05;;
8819;SDS011;4446;50.876;4.736;2022-10-26T01:15:57;7.57;;;3.38;;
8819;SDS011;4446;50.876;4.736;2022-10-26T01:18:33;5.25;;;3.30;;
8819;SDS011;4446;50.876;4.736;2022-10-26T01:21:13;6.68;;;3.55;;
8819;SDS011;4446;50.876;4.736;2022-10-26T01:24:00;7.63;;;3.25;;
8819;SDS011;4446;50.876;4.736;2022-10-26T01:26:49;3.85;;;3.15;;
8819;SDS011;4446;50.876;4.736;2022-10-26T01:29:36;6.88;;;3.40;;
8819;SDS011;4446;50.876;4.736;2022-10-26T01:32:19;5.07;;;3.08;;
8819;SDS011;4446;50.876;4.736;2022-10-26T01:34:52;5.15;;;3.33;;
8819;SDS011;4446;50.876;4.736;2022-10-26T01:37:24;5.47;;;2.85;;
8819;SDS011;4446;50.876;4.736;2022-10-26T01:39:57;4.55;;;3.30;;
8819;SDS011;4446;50.876;4.736;2022-10-26T01:42:30;6.28;;;3.17;;
8819;SDS011;4446;50.876;4.736;2022-10-26T01:44:59;5.47;;;2.97;;
8819;SDS011;4446;50.876;4.736;2022-10-26T01:47:31;4.93;;;3.10;;
8819;SDS011;4446;50.876;4.736;2022-10-26T01:50:01;4.03;;;2.80;;
8819;SDS011;4446;50.876;4.736;2022-10-26T01:52:30;6.60;;;3.13;;
8819;SDS011;4446;50.876;4.736;2022-10-26T01:54:59;5.47;;;2.88;;
8819;SDS011;4446;50.876;4.736;2022-10-26T01:57:27;7.13;;;3.28;;
8819;SDS011;4446;50.876;4.736;2022-10-26T02:00:07;4.88;;;3.00;;
8819;SDS011;4446;50.876;4.736;2022-10-26T02:03:00;4.13;;;2.65;;
8819;SDS011;4446;50.876;4.736;2022-10-26T02:05:43;6.43;;;3.35;;
8819;SDS011;4446;50.876;4.736;2022-10-26T02:08:29;5.18;;;2.78;;
8819;SDS011;4446;50.876;4.736;2022-10-26T02:11:12;6.00;;;2.53;;
8819;SDS011;4446;50.876;4.736;2022-10-26T02:13:51;3.05;;;2.55;;
8819;SDS011;4446;50.876;4.736;2022-10-26T02:16:23;5.78;;;2.70;;
8819;SDS011;4446;50.876;4.736;2022-10-26T02:18:55;3.38;;;2.75;;
8819;SDS011;4446;50.876;4.736;2022-10-26T02:21:30;4.47;;;2.83;;
8819;SDS011;4446;50.876;4.736;2022-10-26T02:24:02;9.35;;;3.20;;
8819;SDS011;4446;50.876;4.736;2022-10-26T02:26:32;3.75;;;2.33;;
8819;SDS011;4446;50.876;4.736;2022-10-26T02:28:59;4.53;;;2.30;;
8819;SDS011;4446;50.876;4.736;2022-10-26T02:31:35;2.60;;;2.13;;
8819;SDS011;4446;50.876;4.736;2022-10-26T02:34:05;5.20;;;2.45;;
8819;SDS011;4446;50.876;4.736;2022-10-26T02:36:36;4.50;;;2.55;;
8819;SDS011;4446;50.876;4.736;2022-10-26T02:39:07;4.80;;;2.40;;
8819;SDS011;4446;50.876;4.736;2022-10-26T02:41:38;4.65;;;2.72;;
8819;SDS011;4446;50.876;4.736;2022-10-26T02:44:07;3.33;;;2.35;;
8819;SDS011;4446;50.876;4.736;2022-10-26T02:46:40;2.83;;;1.90;;
8819;SDS011;4446;50.876;4.736;2022-10-26T02:49:10;5.35;;;2.00;;
8819;SDS011;4446;50.876;4.736;2022-10-26T02:51:38;3.50;;;2.00;;
8819;SDS011;4446;50.876;4.736;2022-10-26T02:54:10;3.40;;;1.92;;
8819;SDS011;4446;50.876;4.736;2022-10-26T02:56:42;2.78;;;1.88;;
8819;SDS011;4446;50.876;4.736;2022-10-26T02:59:12;3.33;;;1.80;;
8819;SDS011;4446;50.876;4.736;2022-10-26T03:01:40;3.80;;;1.95;;
8819;SDS011;4446;50.876;4.736;2022-10-26T03:04:10;2.95;;;1.73;;
8819;SDS011;4446;50.876;4.736;2022-10-26T03:06:37;2.58;;;1.60;;
8819;SDS011;4446;50.876;4.736;2022-10-26T03:09:04;2.05;;;1.65;;
8819;SDS011;4446;50.876;4.736;2022-10-26T03:11:32;3.47;;;1.65;;
8819;SDS011;4446;50.876;4.736;2022-10-26T03:13:59;2.75;;;1.60;;
8819;SDS011;4446;50.876;4.736;2022-10-26T03:16:26;3.78;;;1.48;;
8819;SDS011;4446;50.876;4.736;2022-10-26T03:18:53;1.75;;;1.17;;
8819;SDS011;4446;50.876;4.736;2022-10-26T03:21:21;2.15;;;1.50;;
8819;SDS011;4446;50.876;4.736;2022-10-26T03:23:48;3.05;;;1.65;;
8819;SDS011;4446;50.876;4.736;2022-10-26T03:26:15;2.10;;;1.55;;
8819;SDS011;4446;50.876;4.736;2022-10-26T03:28:42;3.60;;;1.40;;
8819;SDS011;4446;50.876;4.736;2022-10-26T03:31:09;2.05;;;1.42;;
8819;SDS011;4446;50.876;4.736;2022-10-26T03:33:36;3.13;;;1.52;;
8819;SDS011;4446;50.876;4.736;2022-10-26T03:36:07;1.60;;;1.30;;
8819;SDS011;4446;50.876;4.736;2022-10-26T03:38:36;2.67;;;1.40;;
8819;SDS011;4446;50.876;4.736;2022-10-26T03:41:07;4.53;;;1.40;;
8819;SDS011;4446;50.876;4.736;2022-10-26T03:43:34;1.35;;;1.20;;
8819;SDS011;4446;50.876;4.736;2022-10-26T03:46:04;1.30;;;1.20;;
8819;SDS011;4446;50.876;4.736;2022-10-26T03:48:31;2.03;;;1.38;;
8819;SDS011;4446;50.876;4.736;2022-10-26T03:50:58;2.00;;;1.38;;
8819;SDS011;4446;50.876;4.736;2022-10-26T03:53:25;1.65;;;1.20;;
8819;SDS011;4446;50.876;4.736;2022-10-26T03:55:53;2.85;;;1.48;;
8819;SDS011;4446;50.876;4.736;2022-10-26T03:58:20;2.83;;;1.35;;
8819;SDS011;4446;50.876;4.736;2022-10-26T04:00:47;2.80;;;1.30;;
8819;SDS011;4446;50.876;4.736;2022-10-26T04:03:15;2.13;;;1.30;;
8819;SDS011;4446;50.876;4.736;2022-10-26T04:05:42;2.75;;;1.40;;
8819;SDS011;4446;50.876;4.736;2022-10-26T04:08:09;2.13;;;1.40;;
8819;SDS011;4446;50.876;4.736;2022-10-26T04:10:36;2.20;;;1.50;;
8819;SDS011;4446;50.876;4.736;2022-10-26T04:13:04;3.90;;;1.77;;
8819;SDS011;4446;50.876;4.736;2022-10-26T04:15:31;2.30;;;1.38;;
8819;SDS011;4446;50.876;4.736;2022-10-26T04:17:59;2.30;;;1.50;;
8819;SDS011;4446;50.876;4.736;2022-10-26T04:20:27;3.03;;;1.52;;
8819;SDS011;4446;50.876;4.736;2022-10-26T04:22:56;1.48;;;1.33;;
8819;SDS011;4446;50.876;4.736;2022-10-26T04:25:24;3.70;;;1.40;;
8819;SDS011;4446;50.876;4.736;2022-10-26T04:27:51;2.88;;;1.60;;
8819;SDS011;4446;50.876;4.736;2022-10-26T04:30:22;2.30;;;1.63;;
8819;SDS011;4446;50.876;4.736;2022-10-26T04:32:50;2.88;;;1.70;;
8819;SDS011;4446;50.876;4.736;2022-10-26T04:35:17;1.80;;;1.40;;
8819;SDS011;4446;50.876;4.736;2022-10-26T04:37:44;2.10;;;1.60;;
8819;SDS011;4446;50.876;4.736;2022-10-26T04:40:11;3.60;;;1.70;;
8819;SDS011;4446;50.876;4.736;2022-10-26T04:42:41;3.00;;;1.60;;
8819;SDS011;4446;50.876;4.736;2022-10-26T04:45:10;4.60;;;1.60;;
8819;SDS011;4446;50.876;4.736;2022-10-26T04:47:39;3.08;;;1.73;;
8819;SDS011;4446;50.876;4.736;2022-10-26T04:50:07;2.42;;;1.60;;
8819;SDS011;4446;50.876;4.736;2022-10-26T04:52:36;3.88;;;1.85;;
8819;SDS011;4446;50.876;4.736;2022-10-26T04:55:03;2.55;;;1.73;;
8819;SDS011;4446;50.876;4.736;2022-10-26T04:57:32;4.53;;;2.10;;
8819;SDS011;4446;50.876;4.736;2022-10-26T04:59:59;3.63;;;1.92;;
8819;SDS011;4446;50.876;4.736;2022-10-26T05:02:27;1.90;;;1.70;;
8819;SDS011;4446;50.876;4.736;2022-10-26T05:04:56;4.80;;;2.00;;
8819;SDS011;4446;50.876;4.736;2022-10-26T05:07:23;3.47;;;1.90;;
8819;SDS011;4446;50.876;4.736;2022-10-26T05:09:53;2.10;;;1.70;;
8819;SDS011;4446;50.876;4.736;2022-10-26T05:12:22;3.10;;;1.92;;
8819;SDS011;4446;50.876;4.736;2022-10-26T05:14:49;3.47;;;1.92;;
8819;SDS011;4446;50.876;4.736;2022-10-26T05:17:16;3.38;;;1.90;;
8819;SDS011;4446;50.876;4.736;2022-10-26T05:19:43;2.88;;;1.75;;
8819;SDS011;4446;50.876;4.736;2022-10-26T05:22:18;2.88;;;2.05;;
8819;SDS011;4446;50.876;4.736;2022-10-26T05:24:45;1.73;;;1.60;;
8819;SDS011;4446;50.876;4.736;2022-10-26T05:27:12;1.85;;;1.65;;
8819;SDS011;4446;50.876;4.736;2022-10-26T05:29:39;3.40;;;1.95;;
8819;SDS011;4446;50.876;4.736;2022-10-26T05:32:06;3.45;;;1.98;;
8819;SDS011;4446;50.876;4.736;2022-10-26T05:34:33;2.67;;;1.90;;
8819;SDS011;4446;50.876;4.736;2022-10-26T05:37:05;3.67;;;1.90;;
8819;SDS011;4446;50.876;4.736;2022-10-26T05:39:33;2.28;;;1.83;;
8819;SDS011;4446;50.876;4.736;2022-10-26T05:42:01;4.38;;;1.95;;
8819;SDS011;4446;50.876;4.736;2022-10-26T05:44:28;2.92;;;1.90;;
8819;SDS011;4446;50.876;4.736;2022-10-26T05:46:55;3.63;;;1.98;;
8819;SDS011;4446;50.876;4.736;2022-10-26T05:49:22;2.97;;;2.17;;
8819;SDS011;4446;50.876;4.736;2022-10-26T05:51:49;2.65;;;1.95;;
8819;SDS011;4446;50.876;4.736;2022-10-26T05:54:16;3.28;;;2.15;;
8819;SDS011;4446;50.876;4.736;2022-10-26T05:56:45;3.78;;;2.05;;
8819;SDS011;4446;50.876;4.736;2022-10-26T05:59:13;4.65;;;2.10;;
8819;SDS011;4446;50.876;4.736;2022-10-26T06:01:52;2.47;;;1.95;;
8819;SDS011;4446;50.876;4.736;2022-10-26T06:04:35;3.38;;;2.22;;
8819;SDS011;4446;50.876;4.736;2022-10-26T06:07:08;5.97;;;2.28;;
8819;SDS011;4446;50.876;4.736;2022-10-26T06:09:38;5.65;;;1.92;;
8819;SDS011;4446;50.876;4.736;2022-10-26T06:12:08;3.40;;;2.38;;
8819;SDS011;4446;50.876;4.736;2022-10-26T06:14:36;3.42;;;2.28;;
8819;SDS011;4446;50.876;4.736;2022-10-26T06:22:51;2.95;;;2.20;;
8819;SDS011;4446;50.876;4.736;2022-10-26T06:25:28;3.30;;;2.40;;
8819;SDS011;4446;50.876;4.736;2022-10-26T06:28:07;3.55;;;2.38;;
8819;SDS011;4446;50.876;4.736;2022-10-26T06:30:43;5.43;;;2.40;;
8819;SDS011;4446;50.876;4.736;2022-10-26T06:33:11;4.80;;;2.28;;
8819;SDS011;4446;50.876;4.736;2022-10-26T06:35:42;3.50;;;2.40;;
8819;SDS011;4446;50.876;4.736;2022-10-26T06:38:16;4.05;;;2.70;;
8819;SDS011;4446;50.876;4.736;2022-10-26T06:40:47;3.65;;;2.40;;
8819;SDS011;4446;50.876;4.736;2022-10-26T06:43:22;4.50;;;2.35;;
8819;SDS011;4446;50.876;4.736;2022-10-26T06:45:53;2.85;;;2.40;;
8819;SDS011;4446;50.876;4.736;2022-10-26T06:48:38;4.70;;;2.60;;
8819;SDS011;4446;50.876;4.736;2022-10-26T06:51:13;5.13;;;2.40;;
8819;SDS011;4446;50.876;4.736;2022-10-26T06:53:42;3.33;;;2.58;;
8819;SDS011;4446;50.876;4.736;2022-10-26T06:56:17;3.38;;;2.50;;
8819;SDS011;4446;50.876;4.736;2022-10-26T06:58:46;3.78;;;2.60;;
8819;SDS011;4446;50.876;4.736;2022-10-26T07:01:14;3.85;;;2.40;;
8819;SDS011;4446;50.876;4.736;2022-10-26T07:03:46;4.95;;;2.85;;
8819;SDS011;4446;50.876;4.736;2022-10-26T07:06:13;3.53;;;2.22;;
8819;SDS011;4446;50.876;4.736;2022-10-26T07:08:40;6.03;;;2.58;;
8819;SDS011;4446;50.876;4.736;2022-10-26T07:11:07;3.35;;;2.40;;
8819;SDS011;4446;50.876;4.736;2022-10-26T07:13:34;4.07;;;2.53;;
8819;SDS011;4446;50.876;4.736;2022-10-26T07:16:02;4.82;;;2.55;;
8819;SDS011;4446;50.876;4.736;2022-10-26T07:18:30;3.88;;;2.30;;
8819;SDS011;4446;50.876;4.736;2022-10-26T07:20:57;4.32;;;2.63;;
8819;SDS011;4446;50.876;4.736;2022-10-26T07:23:25;5.93;;;2.85;;
8819;SDS011;4446;50.876;4.736;2022-10-26T07:25:51;4.47;;;2.80;;
8819;SDS011;4446;50.876;4.736;2022-10-26T07:28:21;4.88;;;2.90;;
8819;SDS011;4446;50.876;4.736;2022-10-26T07:30:48;4.55;;;2.88;;
8819;SDS011;4446;50.876;4.736;2022-10-26T07:33:17;5.40;;;2.97;;
8819;SDS011;4446;50.876;4.736;2022-10-26T07:35:44;6.57;;;2.90;;
8819;SDS011;4446;50.876;4.736;2022-10-26T07:38:11;4.22;;;2.42;;
8819;SDS011;4446;50.876;4.736;2022-10-26T07:40:39;4.50;;;2.70;;
8819;SDS011;4446;50.876;4.736;2022-10-26T07:43:06;4.65;;;2.90;;
8819;SDS011;4446;50.876;4.736;2022-10-26T07:45:34;5.18;;;2.70;;
8819;SDS011;4446;50.876;4.736;2022-10-26T07:48:02;5.00;;;3.20;;
8819;SDS011;4446;50.876;4.736;2022-10-26T07:50:31;6.38;;;2.95;;
8819;SDS011;4446;50.876;4.736;2022-10-26T07:52:58;7.65;;;3.38;;
8819;SDS011;4446;50.876;4.736;2022-10-26T07:55:28;5.45;;;2.92;;
8819;SDS011;4446;50.876;4.736;2022-10-26T07:57:55;4.78;;;3.00;;
8819;SDS011;4446;50.876;4.736;2022-10-26T08:00:22;5.32;;;2.65;;
8819;SDS011;4446;50.876;4.736;2022-10-26T08:02:49;4.82;;;2.92;;
8819;SDS011;4446;50.876;4.736;2022-10-26T08:05:17;7.63;;;3.20;;
8819;SDS011;4446;50.876;4.736;2022-10-26T08:07:45;4.32;;;2.88;;
8819;SDS011;4446;50.876;4.736;2022-10-26T08:10:14;7.13;;;2.85;;
8819;SDS011;4446;50.876;4.736;2022-10-26T08:12:42;4.65;;;3.00;;
8819;SDS011;4446;50.876;4.736;2022-10-26T08:15:09;5.53;;;2.95;;
8819;SDS011;4446;50.876;4.736;2022-10-26T08:17:36;6.25;;;3.53;;
8819;SDS011;4446;50.876;4.736;2022-10-26T08:20:03;6.30;;;2.92;;
8819;SDS011;4446;50.876;4.736;2022-10-26T08:22:31;2.65;;;2.33;;
8819;SDS011;4446;50.876;4.736;2022-10-26T08:24:59;6.22;;;2.85;;
8819;SDS011;4446;50.876;4.736;2022-10-26T08:27:27;6.70;;;2.92;;
8819;SDS011;4446;50.876;4.736;2022-10-26T08:29:54;3.75;;;2.70;;
8819;SDS011;4446;50.876;4.736;2022-10-26T08:32:21;6.53;;;2.70;;
8819;SDS011;4446;50.876;4.736;2022-10-26T08:34:48;5.13;;;2.40;;
8819;SDS011;4446;50.876;4.736;2022-10-26T08:37:15;5.70;;;2.92;;
8819;SDS011;4446;50.876;4.736;2022-10-26T08:39:42;6.93;;;2.95;;
8819;SDS011;4446;50.876;4.736;2022-10-26T08:42:12;6.93;;;2.55;;
8819;SDS011;4446;50.876;4.736;2022-10-26T08:44:44;6.45;;;2.40;;
8819;SDS011;4446;50.876;4.736;2022-10-26T08:47:15;4.72;;;2.53;;
8819;SDS011;4446;50.876;4.736;2022-10-26T08:49:48;5.38;;;2.40;;
8819;SDS011;4446;50.876;4.736;2022-10-26T08:52:21;7.00;;;2.78;;
8819;SDS011;4446;50.876;4.736;2022-10-26T08:54:52;6.75;;;2.80;;
8819;SDS011;4446;50.876;4.736;2022-10-26T08:57:24;7.40;;;2.58;;
8819;SDS011;4446;50.876;4.736;2022-10-26T08:59:55;3.75;;;2.38;;
8819;SDS011;4446;50.876;4.736;2022-10-26T09:02:26;3.90;;;2.05;;
8819;SDS011;4446;50.876;4.736;2022-10-26T09:04:53;8.10;;;2.63;;
8819;SDS011;4446;50.876;4.736;2022-10-26T09:10:19;4.57;;;2.28;;
8819;SDS011;4446;50.876;4.736;2022-10-26T09:12:58;5.90;;;2.45;;
8819;SDS011;4446;50.876;4.736;2022-10-26T09:15:33;3.47;;;2.25;;
8819;SDS011;4446;50.876;4.736;2022-10-26T09:18:13;3.15;;;2.00;;
8819;SDS011;4446;50.876;4.736;2022-10-26T09:20:52;4.15;;;2.08;;
8819;SDS011;4446;50.876;4.736;2022-10-26T09:23:33;3.65;;;2.20;;
8819;SDS011;4446;50.876;4.736;2022-10-26T09:26:20;4.45;;;1.95;;
8819;SDS011;4446;50.876;4.736;2022-10-26T09:28:57;2.97;;;2.10;;
8819;SDS011;4446;50.876;4.736;2022-10-26T09:31:28;2.40;;;1.90;;
8819;SDS011;4446;50.876;4.736;2022-10-26T09:34:01;4.28;;;1.92;;
8819;SDS011;4446;50.876;4.736;2022-10-26T09:36:32;2.00;;;1.80;;
8819;SDS011;4446;50.876;4.736;2022-10-26T09:39:09;2.53;;;1.48;;
8819;SDS011;4446;50.876;4.736;2022-10-26T09:41:45;2.30;;;1.50;;
8819;SDS011;4446;50.876;4.736;2022-10-26T09:44:21;3.20;;;1.63;;
8819;SDS011;4446;50.876;4.736;2022-10-26T09:46:54;3.15;;;1.90;;
8819;SDS011;4446;50.876;4.736;2022-10-26T09:49:27;3.20;;;1.85;;
8819;SDS011;4446;50.876;4.736;2022-10-26T09:52:03;3.40;;;1.85;;
8819;SDS011;4446;50.876;4.736;2022-10-26T09:54:30;2.30;;;1.60;;
8819;SDS011;4446;50.876;4.736;2022-10-26T09:56:57;2.22;;;1.70;;
8819;SDS011;4446;50.876;4.736;2022-10-26T09:59:30;5.50;;;1.90;;
8819;SDS011;4446;50.876;4.736;2022-10-26T10:02:03;3.53;;;1.88;;
8819;SDS011;4446;50.876;4.736;2022-10-26T10:05:02;3.38;;;2.13;;
8819;SDS011;4446;50.876;4.736;2022-10-26T10:07:47;3.88;;;1.73;;
8819;SDS011;4446;50.876;4.736;2022-10-26T10:10:15;3.85;;;1.77;;
8819;SDS011;4446;50.876;4.736;2022-10-26T10:12:43;7.18;;;2.20;;
8819;SDS011;4446;50.876;4.736;2022-10-26T10:15:20;4.38;;;2.00;;
8819;SDS011;4446;50.876;4.736;2022-10-26T10:17:48;5.45;;;1.98;;
8819;SDS011;4446;50.876;4.736;2022-10-26T10:20:20;2.60;;;1.70;;
8819;SDS011;4446;50.876;4.736;2022-10-26T10:22:52;6.30;;;2.47;;
8819;SDS011;4446;50.876;4.736;2022-10-26T10:25:21;2.70;;;1.83;;
8819;SDS011;4446;50.876;4.736;2022-10-26T10:27:52;3.70;;;1.65;;
8819;SDS011;4446;50.876;4.736;2022-10-26T10:30:21;4.15;;;1.60;;
8819;SDS011;4446;50.876;4.736;2022-10-26T10:33:04;2.13;;;1.63;;
8819;SDS011;4446;50.876;4.736;2022-10-26T10:35:32;9.40;;;2.45;;
8819;SDS011;4446;50.876;4.736;2022-10-26T10:37:59;3.35;;;2.00;;
8819;SDS011;4446;50.876;4.736;2022-10-26T10:40:30;3.03;;;1.80;;
8819;SDS011;4446;50.876;4.736;2022-10-26T10:43:02;6.70;;;1.80;;
8819;SDS011;4446;50.876;4.736;2022-10-26T10:45:32;2.08;;;1.80;;
8819;SDS011;4446;50.876;4.736;2022-10-26T10:48:02;3.05;;;1.77;;
8819;SDS011;4446;50.876;4.736;2022-10-26T10:50:31;4.82;;;2.10;;
8819;SDS011;4446;50.876;4.736;2022-10-26T10:53:13;2.15;;;1.60;;
8819;SDS011;4446;50.876;4.736;2022-10-26T10:55:45;5.90;;;2.10;;
8819;SDS011;4446;50.876;4.736;2022-10-26T10:58:25;3.30;;;1.95;;
8819;SDS011;4446;50.876;4.736;2022-10-26T11:01:01;3.10;;;1.80;;
8819;SDS011;4446;50.876;4.736;2022-10-26T11:03:36;3.42;;;1.70;;
8819;SDS011;4446;50.876;4.736;2022-10-26T11:06:12;4.45;;;2.15;;
8819;SDS011;4446;50.876;4.736;2022-10-26T11:08:44;4.97;;;2.00;;
8819;SDS011;4446;50.876;4.736;2022-10-26T11:11:16;3.22;;;1.70;;
8819;SDS011;4446;50.876;4.736;2022-10-26T11:13:47;3.40;;;1.58;;
8819;SDS011;4446;50.876;4.736;2022-10-26T11:16:23;4.35;;;1.65;;
8819;SDS011;4446;50.876;4.736;2022-10-26T11:18:55;3.65;;;1.65;;
8819;SDS011;4446;50.876;4.736;2022-10-26T11:21:27;3.40;;;1.60;;
8819;SDS011;4446;50.876;4.736;2022-10-26T11:23:56;4.97;;;1.83;;
8819;SDS011;4446;50.876;4.736;2022-10-26T11:26:36;2.95;;;1.83;;
8819;SDS011;4446;50.876;4.736;2022-10-26T11:29:10;4.00;;;1.70;;
8819;SDS011;4446;50.876;4.736;2022-10-26T11:31:46;1.90;;;1.45;;
8819;SDS011;4446;50.876;4.736;2022-10-26T11:34:20;3.53;;;1.60;;
8819;SDS011;4446;50.876;4.736;2022-10-26T11:36:53;2.50;;;1.70;;
8819;SDS011;4446;50.876;4.736;2022-10-26T11:39:27;2.40;;;1.52;;
8819;SDS011;4446;50.876;4.736;2022-10-26T11:42:02;4.03;;;1.70;;
8819;SDS011;4446;50.876;4.736;2022-10-26T11:44:39;3.58;;;2.00;;
8819;SDS011;4446;50.876;4.736;2022-10-26T11:47:13;4.03;;;1.90;;
8819;SDS011;4446;50.876;4.736;2022-10-26T11:49:44;10.43;;;2.15;;
8819;SDS011;4446;50.876;4.736;2022-10-26T11:52:18;4.13;;;1.90;;
8819;SDS011;4446;50.876;4.736;2022-10-26T11:54:54;9.15;;;2.55;;
8819;SDS011;4446;50.876;4.736;2022-10-26T11:57:26;2.38;;;1.70;;
8819;SDS011;4446;50.876;4.736;2022-10-26T11:59:56;2.97;;;1.55;;
8819;SDS011;4446;50.876;4.736;2022-10-26T12:02:30;4.03;;;1.70;;
8819;SDS011;4446;50.876;4.736;2022-10-26T12:05:02;2.08;;;1.70;;
8819;SDS011;4446;50.876;4.736;2022-10-26T12:07:34;2.28;;;1.60;;
8819;SDS011;4446;50.876;4.736;2022-10-26T12:10:06;2.85;;;1.80;;
8819;SDS011;4446;50.876;4.736;2022-10-26T12:12:39;5.57;;;2.05;;
8819;SDS011;4446;50.876;4.736;2022-10-26T12:15:14;3.35;;;1.77;;
8819;SDS011;4446;50.876;4.736;2022-10-26T12:17:50;4.20;;;1.83;;
8819;SDS011;4446;50.876;4.736;2022-10-26T12:20:38;2.42;;;1.52;;
8819;SDS011;4446;50.876;4.736;2022-10-26T12:23:26;4.03;;;1.73;;
8819;SDS011;4446;50.876;4.736;2022-10-26T12:29:26;3.00;;;1.90;;
8819;SDS011;4446;50.876;4.736;2022-10-26T12:32:00;2.67;;;1.75;;
8819;SDS011;4446;50.876;4.736;2022-10-26T12:37:33;5.05;;;1.52;;
8819;SDS011;4446;50.876;4.736;2022-10-26T12:49:06;2.03;;;1.50;;
8819;SDS011;4446;50.876;4.736;2022-10-26T12:58:12;3.13;;;1.30;;
8819;SDS011;4446;50.876;4.736;2022-10-26T13:01:29;5.85;;;1.52;;
8819;SDS011;4446;50.876;4.736;2022-10-26T13:07:35;4.03;;;1.58;;
8819;SDS011;4446;50.876;4.736;2022-10-26T13:10:14;4.25;;;1.67;;
8819;SDS011;4446;50.876;4.736;2022-10-26T13:12:46;3.30;;;1.35;;
8819;SDS011;4446;50.876;4.736;2022-10-26T13:15:21;7.32;;;1.60;;
8819;SDS011;4446;50.876;4.736;2022-10-26T13:17:55;3.08;;;1.40;;
8819;SDS011;4446;50.876;4.736;2022-10-26T13:20:26;2.42;;;1.30;;
8819;SDS011;4446;50.876;4.736;2022-10-26T13:22:55;4.20;;;1.50;;
8819;SDS011;4446;50.876;4.736;2022-10-26T13:25:24;4.30;;;1.60;;
8819;SDS011;4446;50.876;4.736;2022-10-26T13:27:58;2.30;;;1.50;;
8819;SDS011;4446;50.876;4.736;2022-10-26T13:36:01;1.40;;;1.30;;
8819;SDS011;4446;50.876;4.736;2022-10-26T13:38:40;4.88;;;1.70;;
8819;SDS011;4446;50.876;4.736;2022-10-26T13:41:14;3.33;;;1.92;;
8819;SDS011;4446;50.876;4.736;2022-10-26T13:43:46;4.75;;;1.60;;
8819;SDS011;4446;50.876;4.736;2022-10-26T13:46:21;2.45;;;1.50;;
8819;SDS011;4446;50.876;4.736;2022-10-26T13:48:51;1.77;;;1.63;;
8819;SDS011;4446;50.876;4.736;2022-10-26T13:51:24;1.98;;;1.30;;
8819;SDS011;4446;50.876;4.736;2022-10-26T13:54:00;3.13;;;1.42;;
8819;SDS011;4446;50.876;4.736;2022-10-26T13:56:34;2.55;;;1.48;;
8819;SDS011;4446;50.876;4.736;2022-10-26T13:59:07;1.90;;;1.35;;
8819;SDS011;4446;50.876;4.736;2022-10-26T14:01:36;2.83;;;1.83;;
8819;SDS011;4446;50.876;4.736;2022-10-26T14:04:13;3.08;;;1.70;;
8819;SDS011;4446;50.876;4.736;2022-10-26T14:06:42;2.53;;;1.48;;
8819;SDS011;4446;50.876;4.736;2022-10-26T14:09:15;2.15;;;1.27;;
8819;SDS011;4446;50.876;4.736;2022-10-26T14:11:45;3.53;;;1.58;;
8819;SDS011;4446;50.876;4.736;2022-10-26T14:14:17;5.72;;;1.63;;
8819;SDS011;4446;50.876;4.736;2022-10-26T14:16:47;3.33;;;1.58;;
8819;SDS011;4446;50.876;4.736;2022-10-26T14:19:15;3.50;;;1.60;;
8819;SDS011;4446;50.876;4.736;2022-10-26T14:21:48;2.72;;;1.60;;
8819;SDS011;4446;50.876;4.736;2022-10-26T14:24:19;3.13;;;1.55;;
8819;SDS011;4446;50.876;4.736;2022-10-26T14:26:49;3.13;;;1.60;;
8819;SDS011;4446;50.876;4.736;2022-10-26T14:29:17;2.22;;;1.33;;
8819;SDS011;4446;50.876;4.736;2022-10-26T14:31:45;4.15;;;1.83;;
8819;SDS011;4446;50.876;4.736;2022-10-26T14:34:14;2.58;;;1.50;;
8819;SDS011;4446;50.876;4.736;2022-10-26T14:36:42;2.72;;;1.73;;
8819;SDS011;4446;50.876;4.736;2022-10-26T14:39:15;5.45;;;1.98;;
8819;SDS011;4446;50.876;4.736;2022-10-26T14:41:47;3.15;;;1.65;;
8819;SDS011;4446;50.876;4.736;2022-10-26T14:44:18;2.97;;;1.75;;
8819;SDS011;4446;50.876;4.736;2022-10-26T14:46:47;3.75;;;1.45;;
8819;SDS011;4446;50.876;4.736;2022-10-26T14:49:16;3.60;;;1.52;;
8819;SDS011;4446;50.876;4.736;2022-10-26T14:51:46;3.92;;;1.50;;
8819;SDS011;4446;50.876;4.736;2022-10-26T14:54:18;4.88;;;1.70;;
8819;SDS011;4446;50.876;4.736;2022-10-26T14:56:47;3.10;;;1.50;;
8819;SDS011;4446;50.876;4.736;2022-10-26T14:59:19;4.38;;;1.70;;
8819;SDS011;4446;50.876;4.736;2022-10-26T15:01:50;2.08;;;1.42;;
8819;SDS011;4446;50.876;4.736;2022-10-26T15:04:26;2.53;;;1.30;;
8819;SDS011;4446;50.876;4.736;2022-10-26T15:07:00;3.00;;;1.52;;
8819;SDS011;4446;50.876;4.736;2022-10-26T15:09:41;2.97;;;1.60;;
8819;SDS011;4446;50.876;4.736;2022-10-26T15:12:22;3.83;;;1.83;;
8819;SDS011;4446;50.876;4.736;2022-10-26T15:14:55;4.25;;;1.95;;
8819;SDS011;4446;50.876;4.736;2022-10-26T15:17:29;5.55;;;1.50;;
8819;SDS011;4446;50.876;4.736;2022-10-26T15:20:02;2.80;;;1.55;;
8819;SDS011;4446;50.876;4.736;2022-10-26T15:22:31;2.30;;;1.40;;
8819;SDS011;4446;50.876;4.736;2022-10-26T15:25:13;3.25;;;1.30;;
8819;SDS011;4446;50.876;4.736;2022-10-26T15:27:44;3.17;;;1.55;;
8819;SDS011;4446;50.876;4.736;2022-10-26T15:30:21;2.10;;;1.42;;
8819;SDS011;4446;50.876;4.736;2022-10-26T15:32:50;4.13;;;1.50;;
8819;SDS011;4446;50.876;4.736;2022-10-26T15:35:22;4.80;;;1.35;;
8819;SDS011;4446;50.876;4.736;2022-10-26T15:37:52;3.50;;;1.42;;
8819;SDS011;4446;50.876;4.736;2022-10-26T15:40:21;4.13;;;1.60;;
8819;SDS011;4446;50.876;4.736;2022-10-26T15:42:50;2.33;;;1.50;;
8819;SDS011;4446;50.876;4.736;2022-10-26T15:45:18;4.20;;;1.85;;
8819;SDS011;4446;50.876;4.736;2022-10-26T15:47:49;2.53;;;1.38;;
8819;SDS011;4446;50.876;4.736;2022-10-26T15:50:18;4.10;;;1.58;;
8819;SDS011;4446;50.876;4.736;2022-10-26T15:52:46;3.80;;;1.60;;
8819;SDS011;4446;50.876;4.736;2022-10-26T15:55:14;1.80;;;1.33;;
8819;SDS011;4446;50.876;4.736;2022-10-26T15:57:41;2.05;;;1.60;;
8819;SDS011;4446;50.876;4.736;2022-10-26T16:00:13;2.60;;;1.40;;
8819;SDS011;4446;50.876;4.736;2022-10-26T16:02:44;6.10;;;1.58;;
8819;SDS011;4446;50.876;4.736;2022-10-26T16:05:13;1.83;;;1.50;;
8819;SDS011;4446;50.876;4.736;2022-10-26T16:07:41;2.42;;;1.30;;
8819;SDS011;4446;50.876;4.736;2022-10-26T16:10:11;2.72;;;1.65;;
8819;SDS011;4446;50.876;4.736;2022-10-26T16:12:40;3.35;;;1.50;;
8819;SDS011;4446;50.876;4.736;2022-10-26T16:15:08;3.35;;;1.52;;
8819;SDS011;4446;50.876;4.736;2022-10-26T16:17:46;3.90;;;1.40;;
8819;SDS011;4446;50.876;4.736;2022-10-26T16:20:14;3.30;;;1.50;;